Neilston, United Kingdom
Current Conditions -  °F | °C
As of 10:50 PM on Tuesday 21 Oct 2014 (Local Time) from EGPF Reporting Station
Light Rain Light Rain  
Wind Chill: 41°   Ceiling: Unl
Heat Index: 46°   Visibility: 6mi
Dew Point: 39°   Wind: 12mph
Humidity: 76%   Direction: 260°W
Pressure: 29.97"   Gusts: NA
Location:  55.79°N, 4.43°W
Report Text: EGPF 212150Z AUTO 26010KT 9999 -RA FEW030/// SCT037/// //////TCU 08/04 Q1015
Loading
Personal Weather Stations






























Interactive Weather Map
Tropical Storm Tracking
New forecast layout! Learn more

10-Day Weather Forecast

Advertisements
Track Severe Weather on mobile